sensor_id;sensor_type;location;lat;lon;timestamp;pressure;altitude;pressure_sealevel;temperature;humidity
80118;BME280;69424;48.770;-1.564;2023-06-14T06:53:27;101458.15;;;20.68;61.57
80118;BME280;69424;48.770;-1.564;2023-06-14T06:56:08;101460.94;;;20.62;62.05
80118;BME280;69424;48.770;-1.564;2023-06-14T06:58:37;101459.90;;;20.60;62.34
80118;BME280;69424;48.770;-1.564;2023-06-14T07:01:05;101460.70;;;20.65;62.50
80118;BME280;69424;48.770;-1.564;2023-06-14T07:03:33;101463.83;;;20.61;62.38
80118;BME280;69424;48.770;-1.564;2023-06-14T07:09:35;101468.67;;;20.53;62.66
80118;BME280;69424;48.770;-1.564;2023-06-14T07:12:03;101469.77;;;20.52;63.18
80118;BME280;69424;48.770;-1.564;2023-06-14T07:14:32;101473.52;;;20.53;62.94
80118;BME280;69424;48.770;-1.564;2023-06-14T07:17:00;101471.34;;;20.54;62.97
80118;BME280;69424;48.770;-1.564;2023-06-14T07:19:28;101475.33;;;20.61;62.73
80118;BME280;69424;48.770;-1.564;2023-06-14T07:21:56;101476.45;;;20.69;62.71
80118;BME280;69424;48.770;-1.564;2023-06-14T07:24:24;101475.98;;;20.82;62.61
80118;BME280;69424;48.770;-1.564;2023-06-14T07:26:52;101480.16;;;20.96;62.08
80118;BME280;69424;48.770;-1.564;2023-06-14T07:29:21;101484.95;;;21.08;61.60
80118;BME280;69424;48.770;-1.564;2023-06-14T07:31:50;101491.36;;;21.18;61.11
80118;BME280;69424;48.770;-1.564;2023-06-14T07:34:18;101491.48;;;21.29;60.40
80118;BME280;69424;48.770;-1.564;2023-06-14T07:36:46;101489.66;;;21.45;60.31
80118;BME280;69424;48.770;-1.564;2023-06-14T07:39:15;101493.19;;;21.64;60.30
80118;BME280;69424;48.770;-1.564;2023-06-14T07:41:43;101497.16;;;21.85;59.90
80118;BME280;69424;48.770;-1.564;2023-06-14T07:44:12;101499.55;;;22.03;59.14
80118;BME280;69424;48.770;-1.564;2023-06-14T07:46:40;101498.48;;;22.23;59.53
80118;BME280;69424;48.770;-1.564;2023-06-14T07:49:08;101494.67;;;22.44;58.88
80118;BME280;69424;48.770;-1.564;2023-06-14T07:51:37;101496.36;;;22.60;58.39
80118;BME280;69424;48.770;-1.564;2023-06-14T07:54:05;101503.73;;;22.74;57.69
80118;BME280;69424;48.770;-1.564;2023-06-14T07:56:35;101504.88;;;22.77;56.84
80118;BME280;69424;48.770;-1.564;2023-06-14T07:59:03;101505.64;;;22.70;56.55
80118;BME280;69424;48.770;-1.564;2023-06-14T08:01:32;101503.64;;;22.65;56.31
80118;BME280;69424;48.770;-1.564;2023-06-14T08:04:01;101508.15;;;22.64;56.83
80118;BME280;69424;48.770;-1.564;2023-06-14T08:06:29;101509.79;;;22.70;56.86
80118;BME280;69424;48.770;-1.564;2023-06-14T08:08:58;101509.68;;;22.74;57.05
80118;BME280;69424;48.770;-1.564;2023-06-14T08:11:27;101511.63;;;22.75;56.83
80118;BME280;69424;48.770;-1.564;2023-06-14T08:13:55;101511.32;;;22.80;56.54
80118;BME280;69424;48.770;-1.564;2023-06-14T08:16:23;101509.29;;;22.87;56.46
80118;BME280;69424;48.770;-1.564;2023-06-14T08:18:51;101511.55;;;22.90;56.18
80118;BME280;69424;48.770;-1.564;2023-06-14T08:21:19;101513.73;;;22.89;55.89
80118;BME280;69424;48.770;-1.564;2023-06-14T08:23:48;101509.70;;;22.91;56.38
80118;BME280;69424;48.770;-1.564;2023-06-14T08:26:16;101504.61;;;22.99;56.75
80118;BME280;69424;48.770;-1.564;2023-06-14T08:28:44;101509.81;;;23.12;57.00
80118;BME280;69424;48.770;-1.564;2023-06-14T08:31:13;101513.79;;;23.24;56.57
80118;BME280;69424;48.770;-1.564;2023-06-14T08:33:41;101519.62;;;23.28;56.56
80118;BME280;69424;48.770;-1.564;2023-06-14T08:36:11;101521.39;;;23.29;56.06
80118;BME280;69424;48.770;-1.564;2023-06-14T08:38:40;101524.20;;;23.26;55.12
80118;BME280;69424;48.770;-1.564;2023-06-14T08:41:11;101522.44;;;23.18;55.22
80118;BME280;69424;48.770;-1.564;2023-06-14T08:43:41;101519.20;;;23.12;55.39
80118;BME280;69424;48.770;-1.564;2023-06-14T08:46:09;101522.06;;;23.07;55.80
80118;BME280;69424;48.770;-1.564;2023-06-14T08:48:40;101523.88;;;23.00;55.81
80118;BME280;69424;48.770;-1.564;2023-06-14T08:51:10;101524.41;;;22.94;55.67
80118;BME280;69424;48.770;-1.564;2023-06-14T08:53:40;101523.76;;;22.97;56.19
80118;BME280;69424;48.770;-1.564;2023-06-14T08:56:10;101521.70;;;23.06;55.72
80118;BME280;69424;48.770;-1.564;2023-06-14T08:58:43;101529.60;;;23.09;55.49
80118;BME280;69424;48.770;-1.564;2023-06-14T09:01:13;101533.63;;;23.06;55.90
80118;BME280;69424;48.770;-1.564;2023-06-14T09:03:43;101534.84;;;23.01;55.52
80118;BME280;69424;48.770;-1.564;2023-06-14T09:06:12;101537.81;;;22.98;55.67
80118;BME280;69424;48.770;-1.564;2023-06-14T09:08:45;101535.89;;;22.96;55.54
80118;BME280;69424;48.770;-1.564;2023-06-14T09:11:15;101541.08;;;22.91;55.52
80118;BME280;69424;48.770;-1.564;2023-06-14T09:13:47;101542.70;;;22.85;55.50
80118;BME280;69424;48.770;-1.564;2023-06-14T09:16:16;101543.96;;;22.79;55.36
80118;BME280;69424;48.770;-1.564;2023-06-14T09:18:46;101542.59;;;22.70;55.50
80118;BME280;69424;48.770;-1.564;2023-06-14T09:21:17;101541.17;;;22.69;56.23
80118;BME280;69424;48.770;-1.564;2023-06-14T09:23:47;101540.27;;;22.76;55.70
80118;BME280;69424;48.770;-1.564;2023-06-14T09:26:19;101539.94;;;22.81;56.01
80118;BME280;69424;48.770;-1.564;2023-06-14T09:28:49;101547.31;;;22.88;55.96
80118;BME280;69424;48.770;-1.564;2023-06-14T09:31:18;101550.45;;;22.92;55.53
80118;BME280;69424;48.770;-1.564;2023-06-14T09:33:48;101548.30;;;22.92;55.02
80118;BME280;69424;48.770;-1.564;2023-06-14T09:36:21;101548.92;;;22.95;55.23
80118;BME280;69424;48.770;-1.564;2023-06-14T09:39:00;101545.68;;;23.00;55.77
80118;BME280;69424;48.770;-1.564;2023-06-14T09:44:05;101547.63;;;23.09;54.50
80118;BME280;69424;48.770;-1.564;2023-06-14T09:46:39;101552.11;;;23.03;54.89
80118;BME280;69424;48.770;-1.564;2023-06-14T09:49:08;101557.87;;;23.03;54.34
80118;BME280;69424;48.770;-1.564;2023-06-14T09:51:43;101560.16;;;22.92;54.12
80118;BME280;69424;48.770;-1.564;2023-06-14T09:54:15;101561.38;;;22.88;55.00
80118;BME280;69424;48.770;-1.564;2023-06-14T09:56:45;101559.66;;;22.97;55.32
80118;BME280;69424;48.770;-1.564;2023-06-14T09:59:19;101562.20;;;23.10;55.15
80118;BME280;69424;48.770;-1.564;2023-06-14T10:01:48;101562.88;;;23.23;54.55
80118;BME280;69424;48.770;-1.564;2023-06-14T10:04:21;101566.22;;;23.27;53.84
80118;BME280;69424;48.770;-1.564;2023-06-14T10:06:50;101569.35;;;23.30;54.28
80118;BME280;69424;48.770;-1.564;2023-06-14T10:09:19;101574.56;;;23.31;54.18
80118;BME280;69424;48.770;-1.564;2023-06-14T10:11:49;101578.64;;;23.28;54.12
80118;BME280;69424;48.770;-1.564;2023-06-14T10:14:19;101580.15;;;23.26;53.74
80118;BME280;69424;48.770;-1.564;2023-06-14T10:19:23;101585.09;;;23.29;55.00
80118;BME280;69424;48.770;-1.564;2023-06-14T10:22:14;101592.11;;;23.35;54.88
80118;BME280;69424;48.770;-1.564;2023-06-14T10:24:45;101596.84;;;23.34;54.37
80118;BME280;69424;48.770;-1.564;2023-06-14T10:27:15;101595.55;;;23.35;54.37
80118;BME280;69424;48.770;-1.564;2023-06-14T10:32:27;101588.77;;;23.44;53.81
80118;BME280;69424;48.770;-1.564;2023-06-14T10:35:08;101586.27;;;23.49;53.20
80118;BME280;69424;48.770;-1.564;2023-06-14T10:37:37;101583.90;;;23.44;53.28
80118;BME280;69424;48.770;-1.564;2023-06-14T10:40:06;101582.24;;;23.51;53.54
80118;BME280;69424;48.770;-1.564;2023-06-14T10:42:36;101585.82;;;23.52;53.09
80118;BME280;69424;48.770;-1.564;2023-06-14T10:45:05;101581.27;;;23.53;53.89
80118;BME280;69424;48.770;-1.564;2023-06-14T10:47:36;101578.82;;;23.62;53.80
80118;BME280;69424;48.770;-1.564;2023-06-14T10:50:09;101583.27;;;23.70;53.55
80118;BME280;69424;48.770;-1.564;2023-06-14T10:52:41;101585.64;;;23.80;53.27
80118;BME280;69424;48.770;-1.564;2023-06-14T10:55:15;101585.51;;;23.85;53.20
80118;BME280;69424;48.770;-1.564;2023-06-14T10:57:51;101583.90;;;23.95;53.00
80118;BME280;69424;48.770;-1.564;2023-06-14T11:00:23;101584.67;;;24.00;53.37
80118;BME280;69424;48.770;-1.564;2023-06-14T11:05:57;101584.73;;;24.08;53.13
80118;BME280;69424;48.770;-1.564;2023-06-14T11:10:56;101581.86;;;23.91;52.31
80118;BME280;69424;48.770;-1.564;2023-06-14T11:13:27;101581.09;;;23.93;52.83
80118;BME280;69424;48.770;-1.564;2023-06-14T11:15:59;101581.23;;;23.89;52.78
80118;BME280;69424;48.770;-1.564;2023-06-14T11:18:28;101578.15;;;23.89;52.83
80118;BME280;69424;48.770;-1.564;2023-06-14T11:20:56;101578.55;;;23.93;53.50
80118;BME280;69424;48.770;-1.564;2023-06-14T11:23:24;101575.23;;;24.01;52.63
80118;BME280;69424;48.770;-1.564;2023-06-14T11:25:53;101572.20;;;24.00;52.87
80118;BME280;69424;48.770;-1.564;2023-06-14T11:28:23;101571.59;;;24.02;52.77
80118;BME280;69424;48.770;-1.564;2023-06-14T11:31:01;101569.95;;;23.91;52.74
80118;BME280;69424;48.770;-1.564;2023-06-14T11:33:30;101570.90;;;23.90;53.32
80118;BME280;69424;48.770;-1.564;2023-06-14T11:35:58;101569.11;;;23.95;53.83
80118;BME280;69424;48.770;-1.564;2023-06-14T11:38:26;101568.11;;;23.97;53.67
80118;BME280;69424;48.770;-1.564;2023-06-14T11:40:58;101566.81;;;24.04;53.21
80118;BME280;69424;48.770;-1.564;2023-06-14T11:43:27;101568.79;;;24.04;52.44
80118;BME280;69424;48.770;-1.564;2023-06-14T11:45:55;101572.05;;;23.93;52.35
80118;BME280;69424;48.770;-1.564;2023-06-14T11:48:39;101576.08;;;23.85;52.51
80118;BME280;69424;48.770;-1.564;2023-06-14T11:51:07;101582.48;;;23.77;53.02
80118;BME280;69424;48.770;-1.564;2023-06-14T11:53:36;101576.55;;;23.71;53.51
80118;BME280;69424;48.770;-1.564;2023-06-14T11:56:04;101575.50;;;23.64;53.65
80118;BME280;69424;48.770;-1.564;2023-06-14T11:58:33;101582.25;;;23.67;54.03
80118;BME280;69424;48.770;-1.564;2023-06-14T12:01:03;101581.57;;;23.61;54.71
80118;BME280;69424;48.770;-1.564;2023-06-14T12:03:31;101574.92;;;23.59;55.00
80118;BME280;69424;48.770;-1.564;2023-06-14T12:06:07;101578.58;;;23.58;55.15
80118;BME280;69424;48.770;-1.564;2023-06-14T12:08:37;101575.77;;;23.51;54.53
80118;BME280;69424;48.770;-1.564;2023-06-14T12:11:13;101578.77;;;23.41;54.31
80118;BME280;69424;48.770;-1.564;2023-06-14T12:13:42;101576.73;;;23.48;54.61
80118;BME280;69424;48.770;-1.564;2023-06-14T12:16:11;101578.20;;;23.59;53.71
80118;BME280;69424;48.770;-1.564;2023-06-14T12:18:40;101577.36;;;23.63;52.88
80118;BME280;69424;48.770;-1.564;2023-06-14T12:21:09;101576.11;;;23.62;52.79
80118;BME280;69424;48.770;-1.564;2023-06-14T12:23:45;101573.84;;;23.65;52.86
80118;BME280;69424;48.770;-1.564;2023-06-14T12:26:16;101574.88;;;23.78;53.08
80118;BME280;69424;48.770;-1.564;2023-06-14T12:28:45;101577.95;;;23.90;52.74
80118;BME280;69424;48.770;-1.564;2023-06-14T12:31:15;101577.91;;;23.86;52.64
80118;BME280;69424;48.770;-1.564;2023-06-14T12:33:44;101579.90;;;23.78;53.42
80118;BME280;69424;48.770;-1.564;2023-06-14T12:36:17;101580.13;;;23.72;53.74
80118;BME280;69424;48.770;-1.564;2023-06-14T12:38:45;101583.17;;;23.55;54.02
80118;BME280;69424;48.770;-1.564;2023-06-14T12:41:14;101583.55;;;23.38;53.56
80118;BME280;69424;48.770;-1.564;2023-06-14T12:43:42;101582.81;;;23.27;53.85
80118;BME280;69424;48.770;-1.564;2023-06-14T12:46:10;101584.30;;;23.31;54.11
80118;BME280;69424;48.770;-1.564;2023-06-14T12:48:39;101588.42;;;23.38;53.04
80118;BME280;69424;48.770;-1.564;2023-06-14T12:51:07;101581.08;;;23.42;52.11
80118;BME280;69424;48.770;-1.564;2023-06-14T12:53:35;101583.41;;;23.42;51.67
80118;BME280;69424;48.770;-1.564;2023-06-14T12:56:04;101580.55;;;23.35;51.20
80118;BME280;69424;48.770;-1.564;2023-06-14T12:58:32;101582.20;;;23.29;51.63
80118;BME280;69424;48.770;-1.564;2023-06-14T13:01:00;101581.27;;;23.24;50.81
80118;BME280;69424;48.770;-1.564;2023-06-14T13:03:29;101579.48;;;23.12;51.32
80118;BME280;69424;48.770;-1.564;2023-06-14T13:05:57;101584.97;;;23.09;51.87
80118;BME280;69424;48.770;-1.564;2023-06-14T13:08:25;101582.79;;;23.09;52.06
80118;BME280;69424;48.770;-1.564;2023-06-14T13:10:53;101579.94;;;23.14;52.66
80118;BME280;69424;48.770;-1.564;2023-06-14T13:13:22;101580.80;;;23.33;53.20
80118;BME280;69424;48.770;-1.564;2023-06-14T13:15:51;101580.45;;;23.56;52.60
80118;BME280;69424;48.770;-1.564;2023-06-14T13:18:19;101581.37;;;23.66;51.97
80118;BME280;69424;48.770;-1.564;2023-06-14T13:20:47;101582.88;;;23.65;52.14
80118;BME280;69424;48.770;-1.564;2023-06-14T13:23:15;101585.77;;;23.59;52.85
80118;BME280;69424;48.770;-1.564;2023-06-14T13:25:43;101590.79;;;23.60;53.43
80118;BME280;69424;48.770;-1.564;2023-06-14T13:28:12;101594.23;;;23.60;53.12
80118;BME280;69424;48.770;-1.564;2023-06-14T13:30:40;101587.72;;;23.55;53.22
80118;BME280;69424;48.770;-1.564;2023-06-14T13:33:08;101593.38;;;23.47;53.17
80118;BME280;69424;48.770;-1.564;2023-06-14T13:35:37;101597.30;;;23.37;52.46
80118;BME280;69424;48.770;-1.564;2023-06-14T13:38:05;101592.14;;;23.23;52.28
80118;BME280;69424;48.770;-1.564;2023-06-14T13:40:33;101588.48;;;23.05;52.99
80118;BME280;69424;48.770;-1.564;2023-06-14T13:43:01;101588.44;;;22.88;53.33
80118;BME280;69424;48.770;-1.564;2023-06-14T13:45:29;101604.86;;;22.75;54.32
80118;BME280;69424;48.770;-1.564;2023-06-14T13:47:57;101604.98;;;22.57;54.59
80118;BME280;69424;48.770;-1.564;2023-06-14T13:50:26;101606.48;;;22.55;54.94
80118;BME280;69424;48.770;-1.564;2023-06-14T13:52:55;101606.88;;;22.47;55.16
80118;BME280;69424;48.770;-1.564;2023-06-14T13:55:23;101606.73;;;22.39;55.66
80118;BME280;69424;48.770;-1.564;2023-06-14T13:57:51;101608.11;;;22.26;56.22
80118;BME280;69424;48.770;-1.564;2023-06-14T14:00:20;101607.67;;;22.22;56.36
80118;BME280;69424;48.770;-1.564;2023-06-14T14:02:50;101603.82;;;22.25;56.85
80118;BME280;69424;48.770;-1.564;2023-06-14T14:05:19;101600.10;;;22.44;56.92
80118;BME280;69424;48.770;-1.564;2023-06-14T14:07:48;101600.05;;;22.66;55.87
80118;BME280;69424;48.770;-1.564;2023-06-14T14:10:17;101601.17;;;22.83;54.70
80118;BME280;69424;48.770;-1.564;2023-06-14T14:12:48;101599.27;;;22.81;54.31
80118;BME280;69424;48.770;-1.564;2023-06-14T14:15:17;101596.64;;;22.72;54.79
80118;BME280;69424;48.770;-1.564;2023-06-14T14:17:45;101595.00;;;22.79;54.55
80118;BME280;69424;48.770;-1.564;2023-06-14T14:20:14;101590.77;;;22.88;54.53
80118;BME280;69424;48.770;-1.564;2023-06-14T14:22:44;101587.34;;;23.01;53.44
80118;BME280;69424;48.770;-1.564;2023-06-14T14:25:13;101584.64;;;23.08;53.48
80118;BME280;69424;48.770;-1.564;2023-06-14T14:27:41;101585.58;;;23.13;52.27
80118;BME280;69424;48.770;-1.564;2023-06-14T14:30:11;101585.74;;;23.07;53.46
80118;BME280;69424;48.770;-1.564;2023-06-14T14:32:40;101591.39;;;23.17;53.40
80118;BME280;69424;48.770;-1.564;2023-06-14T14:35:08;101595.33;;;23.18;52.01
80118;BME280;69424;48.770;-1.564;2023-06-14T14:37:36;101593.70;;;23.18;52.22
80118;BME280;69424;48.770;-1.564;2023-06-14T14:40:05;101595.52;;;23.17;51.74
80118;BME280;69424;48.770;-1.564;2023-06-14T14:42:34;101599.16;;;23.17;51.78
80118;BME280;69424;48.770;-1.564;2023-06-14T14:45:03;101596.79;;;23.05;51.90
80118;BME280;69424;48.770;-1.564;2023-06-14T14:47:31;101596.58;;;22.99;52.13
80118;BME280;69424;48.770;-1.564;2023-06-14T14:49:59;101593.23;;;23.03;52.85
80118;BME280;69424;48.770;-1.564;2023-06-14T14:52:27;101595.04;;;23.16;52.71
80118;BME280;69424;48.770;-1.564;2023-06-14T14:54:56;101594.78;;;23.24;52.08
80118;BME280;69424;48.770;-1.564;2023-06-14T14:57:24;101586.92;;;23.34;52.14
80118;BME280;69424;48.770;-1.564;2023-06-14T14:59:52;101587.13;;;23.45;51.32
80118;BME280;69424;48.770;-1.564;2023-06-14T15:02:20;101588.71;;;23.46;51.13
80118;BME280;69424;48.770;-1.564;2023-06-14T15:04:50;101586.66;;;23.48;51.10
80118;BME280;69424;48.770;-1.564;2023-06-14T15:07:19;101584.33;;;23.53;51.71
80118;BME280;69424;48.770;-1.564;2023-06-14T15:09:47;101585.03;;;23.60;51.31
80118;BME280;69424;48.770;-1.564;2023-06-14T15:12:18;101586.54;;;23.63;51.27
80118;BME280;69424;48.770;-1.564;2023-06-14T15:14:51;101584.82;;;23.55;51.09
80118;BME280;69424;48.770;-1.564;2023-06-14T15:17:22;101578.98;;;23.45;51.48
80118;BME280;69424;48.770;-1.564;2023-06-14T15:19:52;101583.48;;;23.34;51.93
80118;BME280;69424;48.770;-1.564;2023-06-14T15:22:21;101576.65;;;23.28;53.13
80118;BME280;69424;48.770;-1.564;2023-06-14T15:24:49;101580.50;;;23.32;52.97
80118;BME280;69424;48.770;-1.564;2023-06-14T15:27:18;101582.76;;;23.40;52.71
80118;BME280;69424;48.770;-1.564;2023-06-14T15:29:46;101584.94;;;23.45;53.02
80118;BME280;69424;48.770;-1.564;2023-06-14T15:32:18;101585.52;;;23.50;52.44
80118;BME280;69424;48.770;-1.564;2023-06-14T15:34:47;101584.60;;;23.45;52.88
80118;BME280;69424;48.770;-1.564;2023-06-14T15:37:15;101584.43;;;23.50;53.39
80118;BME280;69424;48.770;-1.564;2023-06-14T15:39:43;101580.95;;;23.52;52.77
80118;BME280;69424;48.770;-1.564;2023-06-14T15:42:12;101584.13;;;23.48;52.75
80118;BME280;69424;48.770;-1.564;2023-06-14T15:44:40;101581.27;;;23.48;53.15
80118;BME280;69424;48.770;-1.564;2023-06-14T15:47:10;101582.98;;;23.50;52.94
80118;BME280;69424;48.770;-1.564;2023-06-14T15:49:38;101582.21;;;23.46;52.84
80118;BME280;69424;48.770;-1.564;2023-06-14T15:52:06;101579.66;;;23.41;52.79
80118;BME280;69424;48.770;-1.564;2023-06-14T15:54:35;101583.14;;;23.39;53.11
80118;BME280;69424;48.770;-1.564;2023-06-14T15:57:03;101580.55;;;23.47;53.55
80118;BME280;69424;48.770;-1.564;2023-06-14T15:59:31;101579.55;;;23.55;53.38
80118;BME280;69424;48.770;-1.564;2023-06-14T16:01:59;101577.24;;;23.66;53.21
80118;BME280;69424;48.770;-1.564;2023-06-14T16:04:27;101575.55;;;23.74;53.14
80118;BME280;69424;48.770;-1.564;2023-06-14T16:06:57;101576.46;;;23.73;52.48
80118;BME280;69424;48.770;-1.564;2023-06-14T16:09:25;101575.02;;;23.63;52.02
80118;BME280;69424;48.770;-1.564;2023-06-14T16:11:53;101575.30;;;23.53;52.56
80118;BME280;69424;48.770;-1.564;2023-06-14T16:14:22;101574.00;;;23.54;53.26
80118;BME280;69424;48.770;-1.564;2023-06-14T16:16:51;101579.82;;;23.59;52.61
80118;BME280;69424;48.770;-1.564;2023-06-14T16:19:20;101574.60;;;23.58;53.17
80118;BME280;69424;48.770;-1.564;2023-06-14T16:21:49;101570.98;;;23.59;52.70
80118;BME280;69424;48.770;-1.564;2023-06-14T16:24:17;101574.46;;;23.57;52.83
80118;BME280;69424;48.770;-1.564;2023-06-14T16:26:46;101564.86;;;23.58;52.16
80118;BME280;69424;48.770;-1.564;2023-06-14T16:29:15;101569.98;;;23.56;51.06
80118;BME280;69424;48.770;-1.564;2023-06-14T16:31:44;101570.10;;;23.47;51.49
80118;BME280;69424;48.770;-1.564;2023-06-14T16:34:13;101569.83;;;23.38;51.46
80118;BME280;69424;48.770;-1.564;2023-06-14T16:36:45;101571.23;;;23.28;52.00
80118;BME280;69424;48.770;-1.564;2023-06-14T16:39:14;101567.42;;;23.16;52.43
80118;BME280;69424;48.770;-1.564;2023-06-14T16:41:42;101558.24;;;23.10;53.51
80118;BME280;69424;48.770;-1.564;2023-06-14T16:44:10;101562.04;;;23.16;53.79
80118;BME280;69424;48.770;-1.564;2023-06-14T16:46:40;101560.52;;;23.24;53.72
80118;BME280;69424;48.770;-1.564;2023-06-14T16:49:08;101557.80;;;23.36;53.41
80118;BME280;69424;48.770;-1.564;2023-06-14T16:51:37;101560.50;;;23.41;52.63
80118;BME280;69424;48.770;-1.564;2023-06-14T16:54:06;101561.77;;;23.48;53.36
80118;BME280;69424;48.770;-1.564;2023-06-14T16:56:34;101562.80;;;23.55;53.36
80118;BME280;69424;48.770;-1.564;2023-06-14T16:59:03;101568.06;;;23.59;52.96
80118;BME280;69424;48.770;-1.564;2023-06-14T17:01:33;101567.54;;;23.59;53.30
80118;BME280;69424;48.770;-1.564;2023-06-14T17:04:03;101568.05;;;23.60;53.14
80118;BME280;69424;48.770;-1.564;2023-06-14T17:06:31;101568.55;;;23.61;53.23
80118;BME280;69424;48.770;-1.564;2023-06-14T17:09:00;101571.64;;;23.61;53.03
80118;BME280;69424;48.770;-1.564;2023-06-14T17:11:28;101575.14;;;23.59;53.21
80118;BME280;69424;48.770;-1.564;2023-06-14T17:13:56;101577.98;;;23.54;53.24
80118;BME280;69424;48.770;-1.564;2023-06-14T17:16:24;101577.73;;;23.50;53.65
80118;BME280;69424;48.770;-1.564;2023-06-14T17:18:53;101577.71;;;23.51;54.05
80118;BME280;69424;48.770;-1.564;2023-06-14T17:21:21;101573.73;;;23.52;54.07
80118;BME280;69424;48.770;-1.564;2023-06-14T17:23:49;101577.52;;;23.52;54.19
80118;BME280;69424;48.770;-1.564;2023-06-14T17:26:18;101578.30;;;23.45;54.28
80118;BME280;69424;48.770;-1.564;2023-06-14T17:28:46;101577.55;;;23.27;54.75
80118;BME280;69424;48.770;-1.564;2023-06-14T17:31:14;101580.30;;;23.14;55.52
80118;BME280;69424;48.770;-1.564;2023-06-14T17:33:42;101576.99;;;23.03;56.11
80118;BME280;69424;48.770;-1.564;2023-06-14T17:36:11;101579.40;;;22.95;55.73
80118;BME280;69424;48.770;-1.564;2023-06-14T17:38:39;101580.23;;;22.91;56.36
80118;BME280;69424;48.770;-1.564;2023-06-14T17:41:07;101582.35;;;22.93;56.26
80118;BME280;69424;48.770;-1.564;2023-06-14T17:43:39;101584.52;;;22.93;56.70
80118;BME280;69424;48.770;-1.564;2023-06-14T17:46:07;101590.16;;;22.97;56.77
80118;BME280;69424;48.770;-1.564;2023-06-14T17:48:35;101590.10;;;23.05;56.78
80118;BME280;69424;48.770;-1.564;2023-06-14T17:51:05;101592.52;;;23.16;56.63
80118;BME280;69424;48.770;-1.564;2023-06-14T17:53:34;101596.41;;;23.25;56.49
80118;BME280;69424;48.770;-1.564;2023-06-14T17:56:03;101597.73;;;23.29;55.74
80118;BME280;69424;48.770;-1.564;2023-06-14T17:58:31;101595.20;;;23.29;55.82
80118;BME280;69424;48.770;-1.564;2023-06-14T18:00:59;101595.32;;;23.25;55.06
80118;BME280;69424;48.770;-1.564;2023-06-14T18:03:28;101593.30;;;23.14;54.83
80118;BME280;69424;48.770;-1.564;2023-06-14T18:05:56;101592.08;;;22.99;55.20
80118;BME280;69424;48.770;-1.564;2023-06-14T18:08:26;101596.28;;;22.91;55.62
80118;BME280;69424;48.770;-1.564;2023-06-14T18:10:54;101603.05;;;22.87;55.55
80118;BME280;69424;48.770;-1.564;2023-06-14T18:13:23;101598.88;;;22.82;55.59
80118;BME280;69424;48.770;-1.564;2023-06-14T18:15:51;101592.44;;;22.80;55.76
80118;BME280;69424;48.770;-1.564;2023-06-14T18:18:19;101590.58;;;22.82;55.93
80118;BME280;69424;48.770;-1.564;2023-06-14T18:20:48;101588.56;;;22.83;56.22
80118;BME280;69424;48.770;-1.564;2023-06-14T18:23:16;101587.06;;;22.85;55.98
80118;BME280;69424;48.770;-1.564;2023-06-14T18:25:44;101591.84;;;22.88;56.06
80118;BME280;69424;48.770;-1.564;2023-06-14T18:28:12;101591.59;;;22.91;56.14
80118;BME280;69424;48.770;-1.564;2023-06-14T18:30:41;101587.97;;;22.92;56.02
80118;BME280;69424;48.770;-1.564;2023-06-14T18:33:09;101589.43;;;22.91;56.00
80118;BME280;69424;48.770;-1.564;2023-06-14T18:35:37;101593.95;;;22.91;56.04
80118;BME280;69424;48.770;-1.564;2023-06-14T18:38:06;101590.73;;;22.89;56.04
80118;BME280;69424;48.770;-1.564;2023-06-14T18:40:34;101598.13;;;22.89;56.27
80118;BME280;69424;48.770;-1.564;2023-06-14T18:43:04;101600.33;;;22.88;56.20
80118;BME280;69424;48.770;-1.564;2023-06-14T18:45:33;101598.92;;;22.86;56.18
80118;BME280;69424;48.770;-1.564;2023-06-14T18:48:02;101602.66;;;22.82;56.50
80118;BME280;69424;48.770;-1.564;2023-06-14T18:50:30;101602.81;;;22.76;56.48
80118;BME280;69424;48.770;-1.564;2023-06-14T18:52:58;101600.45;;;22.71;56.54
80118;BME280;69424;48.770;-1.564;2023-06-14T18:55:27;101603.08;;;22.67;56.49
80118;BME280;69424;48.770;-1.564;2023-06-14T18:57:56;101604.30;;;22.62;56.67
80118;BME280;69424;48.770;-1.564;2023-06-14T19:00:25;101604.45;;;22.57;57.00
80118;BME280;69424;48.770;-1.564;2023-06-14T19:02:54;101608.55;;;22.59;57.32
80118;BME280;69424;48.770;-1.564;2023-06-14T19:05:24;101603.69;;;22.64;57.60
80118;BME280;69424;48.770;-1.564;2023-06-14T19:07:53;101608.48;;;22.75;57.73
80118;BME280;69424;48.770;-1.564;2023-06-14T19:10:22;101605.40;;;22.81;57.84
80118;BME280;69424;48.770;-1.564;2023-06-14T19:12:51;101607.45;;;22.85;58.00
80118;BME280;69424;48.770;-1.564;2023-06-14T19:15:20;101609.13;;;22.83;58.03
80118;BME280;69424;48.770;-1.564;2023-06-14T19:17:59;101606.67;;;22.81;57.99
80118;BME280;69424;48.770;-1.564;2023-06-14T19:20:30;101608.61;;;22.76;58.32
80118;BME280;69424;48.770;-1.564;2023-06-14T19:23:00;101614.62;;;22.74;58.43
80118;BME280;69424;48.770;-1.564;2023-06-14T19:25:29;101616.35;;;22.76;58.33
80118;BME280;69424;48.770;-1.564;2023-06-14T19:27:58;101614.55;;;22.76;58.15
80118;BME280;69424;48.770;-1.564;2023-06-14T19:30:28;101613.19;;;22.74;58.39
80118;BME280;69424;48.770;-1.564;2023-06-14T19:32:58;101614.61;;;22.67;58.53
80118;BME280;69424;48.770;-1.564;2023-06-14T19:35:27;101614.68;;;22.58;59.09
80118;BME280;69424;48.770;-1.564;2023-06-14T19:37:56;101618.09;;;22.45;60.02
80118;BME280;69424;48.770;-1.564;2023-06-14T19:40:25;101624.25;;;22.30;60.62
80118;BME280;69424;48.770;-1.564;2023-06-14T19:42:54;101627.93;;;22.19;61.13
80118;BME280;69424;48.770;-1.564;2023-06-14T19:45:22;101629.61;;;22.09;61.58
80118;BME280;69424;48.770;-1.564;2023-06-14T19:47:52;101634.79;;;21.97;61.96
80118;BME280;69424;48.770;-1.564;2023-06-14T19:50:34;101638.08;;;21.79;62.13
80118;BME280;69424;48.770;-1.564;2023-06-14T19:53:03;101644.04;;;21.63;62.35
80118;BME280;69424;48.770;-1.564;2023-06-14T19:55:32;101645.98;;;21.48;63.01
80118;BME280;69424;48.770;-1.564;2023-06-14T19:58:01;101647.44;;;21.29;63.59
80118;BME280;69424;48.770;-1.564;2023-06-14T20:00:31;101651.51;;;21.06;64.01